createdAt,value
2023-11-24T00:02:00.264Z,3.10
2023-11-24T00:04:46.207Z,3.10
2023-11-24T00:07:32.141Z,3.20
2023-11-24T00:10:18.077Z,3.20
2023-11-24T00:13:03.582Z,3.20
2023-11-24T00:15:49.705Z,3.20
2023-11-24T00:18:35.534Z,3.20
2023-11-24T00:21:21.713Z,3.20
2023-11-24T00:24:08.569Z,3.20
2023-11-24T00:26:55.916Z,3.20
2023-11-24T00:29:41.659Z,3.20
2023-11-24T00:32:27.441Z,3.20
2023-11-24T00:35:13.351Z,3.20
2023-11-24T00:37:59.407Z,3.20
2023-11-24T00:40:45.247Z,3.20
2023-11-24T00:43:30.814Z,3.20
2023-11-24T00:46:17.650Z,3.20
2023-11-24T00:49:04.133Z,3.20
2023-11-24T00:51:49.973Z,3.20
2023-11-24T00:54:35.602Z,3.20
2023-11-24T00:57:22.226Z,3.20
2023-11-24T01:00:09.191Z,3.20
2023-11-24T01:02:54.766Z,3.20
2023-11-24T01:05:40.660Z,3.20
2023-11-24T01:08:29.686Z,3.30
2023-11-24T01:11:15.497Z,3.20
2023-11-24T01:14:01.149Z,3.20
2023-11-24T01:16:46.985Z,3.20
2023-11-24T01:19:35.332Z,3.30
2023-11-24T01:22:21.271Z,3.20
2023-11-24T01:25:08.091Z,3.20
2023-11-24T01:27:56.265Z,3.20
2023-11-24T01:30:42.483Z,3.20
2023-11-24T01:33:29.320Z,3.20
2023-11-24T01:36:15.188Z,3.20
2023-11-24T01:39:01.048Z,3.20
2023-11-24T01:41:46.570Z,3.10
2023-11-24T01:44:32.176Z,3.10
2023-11-24T01:47:17.975Z,3.00
2023-11-24T01:50:05.833Z,3.00
2023-11-24T01:52:51.269Z,3.00
2023-11-24T01:55:37.258Z,3.00
2023-11-24T01:58:23.435Z,2.90
2023-11-24T02:01:09.402Z,3.00
2023-11-24T02:03:57.124Z,2.90
2023-11-24T02:06:45.817Z,3.00
2023-11-24T02:09:31.627Z,3.00
2023-11-24T02:12:18.003Z,3.00
2023-11-24T02:15:04.249Z,3.10
2023-11-24T02:17:49.914Z,3.10
2023-11-24T02:20:38.848Z,3.10
2023-11-24T02:23:24.840Z,3.10
2023-11-24T02:26:11.084Z,3.20
2023-11-24T02:28:56.663Z,3.20
2023-11-24T02:31:42.227Z,3.20
2023-11-24T02:34:28.219Z,3.20
2023-11-24T02:37:14.328Z,3.20
2023-11-24T02:40:00.153Z,3.30
2023-11-24T02:42:46.086Z,3.30
2023-11-24T02:45:34.806Z,3.30
2023-11-24T02:48:20.749Z,3.40
2023-11-24T02:51:07.271Z,3.40
2023-11-24T02:53:53.138Z,3.50
2023-11-24T02:56:38.583Z,3.50
2023-11-24T02:59:24.676Z,3.50
2023-11-24T03:02:10.268Z,3.50
2023-11-24T03:04:56.235Z,3.60
2023-11-24T03:07:42.286Z,3.60
2023-11-24T03:10:27.833Z,3.70
2023-11-24T03:13:13.806Z,3.70
2023-11-24T03:15:59.806Z,3.80
2023-11-24T03:18:45.967Z,3.80
2023-11-24T03:21:31.785Z,3.80
2023-11-24T03:24:17.577Z,3.80
2023-11-24T03:27:03.213Z,3.90
2023-11-24T03:29:49.558Z,3.90
2023-11-24T03:32:35.297Z,3.90
2023-11-24T03:35:21.164Z,4.00
2023-11-24T03:38:06.700Z,4.00
2023-11-24T03:40:52.443Z,4.00
2023-11-24T03:43:38.061Z,4.10
2023-11-24T03:46:23.840Z,4.10
2023-11-24T03:49:10.077Z,4.10
2023-11-24T03:51:55.899Z,4.10
2023-11-24T03:54:41.970Z,4.10
2023-11-24T03:57:27.724Z,4.10
2023-11-24T04:00:14.735Z,4.10
2023-11-24T04:03:00.714Z,4.10
2023-11-24T04:05:46.371Z,4.00
2023-11-24T04:08:32.448Z,4.10
2023-11-24T04:11:18.266Z,4.20
2023-11-24T04:14:06.364Z,4.30
2023-11-24T04:16:52.000Z,4.20
2023-11-24T04:19:38.069Z,4.30
2023-11-24T04:22:24.310Z,4.30
2023-11-24T04:25:10.381Z,4.30
2023-11-24T04:27:56.122Z,4.40
2023-11-24T04:30:42.346Z,4.40
2023-11-24T04:33:28.499Z,4.40
2023-11-24T04:36:14.678Z,4.50
2023-11-24T04:39:00.507Z,4.50
2023-11-24T04:41:48.657Z,4.50
2023-11-24T04:44:35.138Z,4.50
2023-11-24T04:47:20.820Z,4.50
2023-11-24T04:50:08.825Z,4.60
2023-11-24T04:52:54.849Z,4.60
2023-11-24T04:55:40.328Z,4.60
2023-11-24T04:58:26.073Z,4.60
2023-11-24T05:01:13.257Z,4.60
2023-11-24T05:03:59.435Z,4.70
2023-11-24T05:06:45.564Z,4.70
2023-11-24T05:09:31.165Z,4.70
2023-11-24T05:12:16.730Z,4.70
2023-11-24T05:15:07.318Z,4.70
2023-11-24T05:17:53.285Z,4.80
2023-11-24T05:20:41.441Z,4.80
2023-11-24T05:23:27.296Z,4.80
2023-11-24T05:26:13.625Z,4.80
2023-11-24T05:29:00.655Z,4.80
2023-11-24T05:31:46.741Z,4.80
2023-11-24T05:34:32.421Z,4.80
2023-11-24T05:37:21.442Z,4.80
2023-11-24T05:40:08.615Z,4.80
2023-11-24T05:42:56.655Z,4.80
2023-11-24T05:45:44.284Z,4.80
2023-11-24T05:48:31.828Z,4.80
2023-11-24T05:51:19.667Z,4.80
2023-11-24T05:54:07.019Z,4.70
2023-11-24T05:56:53.221Z,4.70
2023-11-24T05:59:39.375Z,4.60
2023-11-24T06:02:25.275Z,4.50
2023-11-24T06:05:17.628Z,4.60
2023-11-24T06:08:07.112Z,4.50
2023-11-24T06:10:53.116Z,4.50
2023-11-24T06:13:39.406Z,4.60
2023-11-24T06:16:25.649Z,4.60
2023-11-24T06:19:12.016Z,4.60
2023-11-24T06:21:58.172Z,4.70
2023-11-24T06:24:44.597Z,4.60
2023-11-24T06:27:32.722Z,4.60
2023-11-24T06:30:24.745Z,4.70
2023-11-24T06:33:10.598Z,4.70
2023-11-24T06:35:55.904Z,4.70
2023-11-24T06:38:41.736Z,4.80
2023-11-24T06:41:29.353Z,4.90
2023-11-24T06:44:15.361Z,4.80
2023-11-24T06:47:07.245Z,4.90
2023-11-24T06:49:52.954Z,4.90
2023-11-24T06:52:39.454Z,4.90
2023-11-24T06:55:25.656Z,4.90
2023-11-24T06:58:11.625Z,4.90
2023-11-24T07:00:58.292Z,4.90
2023-11-24T07:03:47.974Z,5.00
2023-11-24T07:06:34.465Z,5.00
2023-11-24T07:09:20.423Z,5.00
2023-11-24T07:12:13.109Z,5.00
2023-11-24T07:14:59.056Z,5.00
2023-11-24T07:17:45.965Z,5.00
2023-11-24T07:20:37.190Z,5.00
2023-11-24T07:23:22.835Z,5.10
2023-11-24T07:26:09.176Z,5.10
2023-11-24T07:28:55.296Z,5.10
2023-11-24T07:31:41.141Z,5.20
2023-11-24T07:34:26.994Z,5.20
2023-11-24T07:37:13.205Z,5.20
2023-11-24T07:39:59.130Z,5.20
2023-11-24T07:42:46.003Z,5.20
2023-11-24T07:45:34.779Z,5.20
2023-11-24T07:48:20.438Z,5.20
2023-11-24T07:51:06.377Z,5.30
2023-11-24T07:53:52.159Z,5.30
2023-11-24T07:57:21.441Z,5.30
2023-11-24T08:00:08.987Z,5.30
2023-11-24T08:02:58.177Z,5.40
2023-11-24T08:05:50.659Z,5.50
2023-11-24T08:08:36.471Z,5.70
2023-11-24T08:11:22.206Z,5.80
2023-11-24T08:14:07.986Z,5.90
2023-11-24T08:16:54.152Z,6.00
2023-11-24T08:19:40.009Z,6.20
2023-11-24T08:22:33.135Z,6.20
2023-11-24T08:25:19.662Z,6.20
2023-11-24T08:28:05.392Z,6.20
2023-11-24T08:30:51.096Z,6.20
2023-11-24T08:33:37.135Z,6.10
2023-11-24T08:36:23.317Z,6.20
2023-11-24T08:39:09.460Z,6.20
2023-11-24T08:41:55.024Z,6.20
2023-11-24T08:44:40.731Z,6.20
2023-11-24T08:47:26.374Z,6.20
2023-11-24T08:50:12.083Z,6.20
2023-11-24T08:52:59.758Z,6.20
2023-11-24T08:55:46.043Z,6.20
2023-11-24T08:58:33.426Z,6.20
2023-11-24T09:01:24.244Z,6.20
2023-11-24T09:04:10.456Z,6.20
2023-11-24T09:06:56.744Z,6.20
2023-11-24T09:09:42.755Z,6.20
2023-11-24T09:12:29.279Z,6.20
2023-11-24T09:15:15.111Z,6.20
2023-11-24T09:18:02.137Z,6.20
2023-11-24T09:20:47.893Z,6.20
2023-11-24T09:23:33.842Z,6.10
2023-11-24T09:26:20.031Z,6.10
2023-11-24T09:29:06.097Z,6.20
2023-11-24T09:31:51.677Z,6.10
2023-11-24T09:34:37.394Z,6.10
2023-11-24T09:37:23.405Z,6.10
2023-11-24T09:40:10.314Z,6.10
2023-11-24T09:42:56.520Z,6.20
2023-11-24T09:45:42.534Z,6.20
2023-11-24T09:48:29.533Z,6.20
2023-11-24T09:51:18.337Z,6.30
2023-11-24T09:54:06.879Z,6.30
2023-11-24T09:56:53.078Z,6.40
2023-11-24T09:59:39.253Z,6.40
2023-11-24T10:02:28.379Z,6.50
2023-11-24T10:05:19.754Z,6.60
2023-11-24T10:08:06.181Z,6.70
2023-11-24T10:10:51.960Z,6.60
2023-11-24T10:13:47.666Z,6.60
2023-11-24T10:16:35.497Z,6.60
2023-11-24T10:19:23.133Z,6.50
2023-11-24T10:22:09.923Z,6.50
2023-11-24T10:24:55.991Z,6.50
2023-11-24T10:27:41.773Z,6.50
2023-11-24T10:30:28.148Z,6.50
2023-11-24T10:33:34.546Z,6.60
2023-11-24T10:36:25.021Z,6.60
2023-11-24T10:39:12.301Z,6.70
2023-11-24T10:41:58.005Z,6.70
2023-11-24T10:44:44.767Z,6.70
2023-11-24T10:47:43.341Z,6.70
2023-11-24T10:50:30.322Z,6.70
2023-11-24T10:53:39.060Z,6.70
2023-11-24T10:56:25.177Z,6.60
2023-11-24T10:59:14.938Z,6.40
2023-11-24T11:02:01.759Z,6.40
2023-11-24T11:05:57.184Z,6.30
2023-11-24T11:08:51.977Z,6.20
2023-11-24T11:12:21.349Z,6.10
2023-11-24T11:15:09.758Z,6.00
2023-11-24T11:18:14.865Z,5.90
2023-11-24T11:21:12.036Z,5.90
2023-11-24T11:24:05.726Z,5.80
2023-11-24T11:26:51.612Z,5.80
2023-11-24T11:29:37.804Z,5.70
2023-11-24T11:32:25.869Z,5.70
2023-11-24T11:35:12.888Z,5.80
2023-11-24T11:38:02.186Z,5.80
2023-11-24T11:40:51.352Z,5.80
2023-11-24T11:43:56.560Z,5.90
2023-11-24T11:47:15.079Z,5.90
2023-11-24T11:50:01.122Z,6.10
2023-11-24T11:52:50.678Z,6.10
2023-11-24T11:55:36.342Z,6.20
2023-11-24T11:58:22.211Z,6.20
2023-11-24T12:01:08.157Z,6.20
2023-11-24T12:03:56.367Z,6.10
2023-11-24T12:06:42.150Z,6.10
2023-11-24T12:09:28.464Z,6.10
2023-11-24T12:12:14.640Z,6.10
2023-11-24T12:15:03.750Z,6.10
2023-11-24T12:17:49.907Z,6.00
2023-11-24T12:20:36.133Z,6.00
2023-11-24T12:23:23.291Z,5.90
2023-11-24T12:26:09.207Z,5.90
2023-11-24T12:29:02.103Z,5.90
2023-11-24T12:31:48.234Z,5.80
2023-11-24T12:34:34.352Z,5.80
2023-11-24T12:37:20.350Z,5.70
2023-11-24T12:40:09.177Z,5.70
2023-11-24T12:42:59.963Z,5.60
2023-11-24T12:45:49.425Z,5.60
2023-11-24T12:48:35.517Z,5.60
2023-11-24T12:51:21.433Z,5.50
2023-11-24T12:54:07.403Z,5.50
2023-11-24T12:56:53.322Z,5.40
2023-11-24T12:59:39.090Z,5.40
2023-11-24T13:02:25.287Z,5.40
2023-11-24T13:05:12.565Z,5.40
2023-11-24T13:07:58.498Z,5.40
2023-11-24T13:10:44.494Z,5.40
2023-11-24T13:13:31.035Z,5.30
2023-11-24T13:16:17.902Z,5.30
2023-11-24T13:19:03.686Z,5.20
2023-11-24T13:21:52.711Z,5.10
2023-11-24T13:24:39.304Z,5.00
2023-11-24T13:27:24.946Z,5.00
2023-11-24T13:30:11.180Z,4.90
2023-11-24T13:32:57.081Z,4.90
2023-11-24T13:35:43.020Z,4.80
2023-11-24T13:38:29.024Z,4.80
2023-11-24T13:41:15.110Z,4.70
2023-11-24T13:44:00.783Z,4.60
2023-11-24T13:46:46.364Z,4.60
2023-11-24T13:49:38.929Z,4.50
2023-11-24T13:52:24.758Z,4.40
2023-11-24T13:55:10.825Z,4.40
2023-11-24T13:57:56.681Z,4.40
2023-11-24T14:00:42.714Z,4.40
2023-11-24T14:03:28.768Z,4.30
2023-11-24T14:06:15.387Z,4.30
2023-11-24T14:09:07.388Z,4.20
2023-11-24T14:11:54.461Z,4.20
2023-11-24T14:14:40.519Z,4.10
2023-11-24T14:17:26.399Z,4.00
2023-11-24T14:20:12.359Z,4.00
2023-11-24T14:22:58.584Z,3.90
2023-11-24T14:25:44.700Z,3.90
2023-11-24T14:28:30.744Z,3.80
2023-11-24T14:31:17.285Z,3.80
2023-11-24T14:34:04.161Z,3.80
2023-11-24T14:36:50.035Z,3.80
2023-11-24T14:39:36.380Z,3.70
2023-11-24T14:42:22.092Z,3.70
2023-11-24T14:45:09.416Z,3.60
2023-11-24T14:47:55.835Z,3.60
2023-11-24T14:50:42.429Z,3.50
2023-11-24T14:53:28.436Z,3.40
2023-11-24T14:56:14.547Z,3.50
2023-11-24T14:59:00.371Z,3.50
2023-11-24T15:01:46.248Z,3.50
2023-11-24T15:04:32.618Z,3.50
2023-11-24T15:07:21.754Z,3.60
2023-11-24T15:10:08.421Z,3.40
2023-11-24T15:12:57.537Z,3.40
2023-11-24T15:15:43.256Z,3.30
2023-11-24T15:18:29.624Z,3.20
2023-11-24T15:21:19.163Z,3.10
2023-11-24T15:24:06.018Z,3.00
2023-11-24T15:26:51.606Z,2.90
2023-11-24T15:29:37.502Z,2.80
2023-11-24T15:32:23.224Z,2.70
2023-11-24T15:35:12.015Z,2.60
2023-11-24T15:37:58.081Z,2.40
2023-11-24T15:40:44.287Z,2.40
2023-11-24T15:43:30.566Z,2.30
2023-11-24T15:46:19.769Z,2.30
2023-11-24T15:49:12.191Z,2.20
2023-11-24T15:51:58.424Z,2.20
2023-11-24T15:54:46.759Z,2.20
2023-11-24T15:57:32.683Z,2.20
2023-11-24T16:00:21.792Z,2.10
2023-11-24T16:03:08.322Z,2.20
2023-11-24T16:05:54.674Z,2.20
2023-11-24T16:08:40.475Z,2.20
2023-11-24T16:11:26.347Z,2.20
2023-11-24T16:14:12.588Z,2.20
2023-11-24T16:17:00.020Z,2.20
2023-11-24T16:19:46.134Z,2.20
2023-11-24T16:22:34.621Z,2.20
2023-11-24T16:25:20.576Z,2.10
2023-11-24T16:28:06.131Z,2.10
2023-11-24T16:30:55.198Z,2.00
2023-11-24T16:33:40.853Z,2.00
2023-11-24T16:36:26.398Z,1.90
2023-11-24T16:39:12.997Z,1.90
2023-11-24T16:41:59.101Z,1.90
2023-11-24T16:44:45.274Z,2.00
2023-11-24T16:47:31.713Z,2.00
2023-11-24T16:50:17.595Z,2.10
2023-11-24T16:53:04.531Z,2.10
2023-11-24T16:55:50.009Z,2.20
2023-11-24T16:58:35.808Z,2.30
2023-11-24T17:01:22.356Z,2.30
2023-11-24T17:04:08.803Z,2.50
2023-11-24T17:06:55.233Z,2.50
2023-11-24T17:09:40.752Z,2.60
2023-11-24T17:12:26.504Z,2.60
2023-11-24T17:15:12.743Z,2.60
2023-11-24T17:17:58.770Z,2.50
2023-11-24T17:20:47.490Z,2.50
2023-11-24T17:23:34.781Z,2.40
2023-11-24T17:26:20.425Z,2.40
2023-11-24T17:29:10.406Z,2.30
2023-11-24T17:31:56.474Z,2.30
2023-11-24T17:34:42.065Z,2.30
2023-11-24T17:37:27.941Z,2.20
2023-11-24T17:40:13.576Z,2.20
2023-11-24T17:43:01.985Z,2.10
2023-11-24T17:45:47.958Z,2.10
2023-11-24T17:48:35.322Z,2.00
2023-11-24T17:51:20.867Z,2.00
2023-11-24T17:54:07.098Z,1.90
2023-11-24T17:56:53.102Z,1.90
2023-11-24T17:59:39.297Z,1.90
2023-11-24T18:02:25.319Z,1.90
2023-11-24T18:05:10.848Z,1.90
2023-11-24T18:07:56.670Z,1.80
2023-11-24T18:10:42.968Z,1.80
2023-11-24T18:13:29.790Z,1.70
2023-11-24T18:16:15.698Z,1.70
2023-11-24T18:19:01.796Z,1.70
2023-11-24T18:21:47.940Z,1.60
2023-11-24T18:24:34.234Z,1.60
2023-11-24T18:27:20.112Z,1.60
2023-11-24T18:30:09.555Z,1.60
2023-11-24T18:32:55.369Z,1.60
2023-11-24T18:35:41.001Z,1.60
2023-11-24T18:38:26.821Z,1.50
2023-11-24T18:41:12.553Z,1.50
2023-11-24T18:43:58.956Z,1.50
2023-11-24T18:46:45.180Z,1.50
2023-11-24T18:49:31.173Z,1.50
2023-11-24T18:52:18.153Z,1.50
2023-11-24T18:55:05.094Z,1.40
2023-11-24T18:57:51.134Z,1.40
2023-11-24T19:00:40.032Z,1.40
2023-11-24T19:03:31.993Z,1.40
2023-11-24T19:06:18.085Z,1.50
2023-11-24T19:09:04.538Z,1.50
2023-11-24T19:11:50.041Z,1.50
2023-11-24T19:14:35.848Z,1.50
2023-11-24T19:17:21.814Z,1.50
2023-11-24T19:20:09.140Z,1.60
2023-11-24T19:22:55.110Z,1.60
2023-11-24T19:25:41.289Z,1.70
2023-11-24T19:28:29.878Z,1.80
2023-11-24T19:31:17.917Z,1.80
2023-11-24T19:34:04.227Z,1.80
2023-11-24T19:36:49.941Z,1.80
2023-11-24T19:39:35.735Z,1.80
2023-11-24T19:42:22.687Z,1.80
2023-11-24T19:45:09.606Z,1.80
2023-11-24T19:47:55.616Z,1.80
2023-11-24T19:50:42.986Z,1.80
2023-11-24T19:53:31.709Z,1.80
2023-11-24T19:56:18.007Z,1.70
2023-11-24T19:59:06.286Z,1.70
2023-11-24T20:01:52.212Z,1.70
2023-11-24T20:04:38.528Z,1.60
2023-11-24T20:07:25.240Z,1.50
2023-11-24T20:10:11.137Z,1.50
2023-11-24T20:12:57.650Z,1.40
2023-11-24T20:15:46.632Z,1.30
2023-11-24T20:18:32.311Z,1.30
2023-11-24T20:21:18.497Z,1.20
2023-11-24T20:24:09.038Z,1.20
2023-11-24T20:26:54.838Z,1.30
2023-11-24T20:29:40.677Z,1.30
2023-11-24T20:32:26.506Z,1.30
2023-11-24T20:35:12.451Z,1.20
2023-11-24T20:37:59.351Z,1.20
2023-11-24T20:40:45.139Z,1.30
2023-11-24T20:43:30.924Z,1.20
2023-11-24T20:46:16.989Z,1.20
2023-11-24T20:49:03.428Z,1.20
2023-11-24T20:51:49.352Z,1.30
2023-11-24T20:54:35.434Z,1.30
2023-11-24T20:57:21.081Z,1.30
2023-11-24T21:00:08.058Z,1.40
2023-11-24T21:02:56.641Z,1.40
2023-11-24T21:05:42.551Z,1.40
2023-11-24T21:08:31.670Z,1.40
2023-11-24T21:11:18.075Z,1.50
2023-11-24T21:14:04.435Z,1.60
2023-11-24T21:16:50.021Z,1.60
2023-11-24T21:19:35.987Z,1.70
2023-11-24T21:22:21.880Z,1.60
2023-11-24T21:25:08.825Z,1.70
2023-11-24T21:28:01.126Z,1.70
2023-11-24T21:30:48.678Z,1.70
2023-11-24T21:33:37.109Z,1.60
2023-11-24T21:36:23.078Z,1.60
2023-11-24T21:39:09.295Z,1.60
2023-11-24T21:41:55.140Z,1.60
2023-11-24T21:44:41.171Z,1.60
2023-11-24T21:47:27.379Z,1.60
2023-11-24T21:50:13.385Z,1.60
2023-11-24T21:52:59.474Z,1.60
2023-11-24T21:55:45.853Z,1.50
2023-11-24T21:58:31.909Z,1.50
2023-11-24T22:01:22.172Z,1.50
2023-11-24T22:04:08.368Z,1.60
2023-11-24T22:06:54.795Z,1.60
2023-11-24T22:09:40.786Z,1.60
2023-11-24T22:12:26.388Z,1.80
2023-11-24T22:15:11.953Z,1.80
2023-11-24T22:17:57.737Z,1.90
2023-11-24T22:20:46.762Z,1.90
2023-11-24T22:23:32.961Z,2.00
2023-11-24T22:26:22.108Z,2.00
2023-11-24T22:29:09.912Z,2.00
2023-11-24T22:31:55.953Z,2.10
2023-11-24T22:34:41.624Z,2.10
2023-11-24T22:37:28.244Z,2.10
2023-11-24T22:40:14.261Z,2.10
2023-11-24T22:42:59.907Z,2.10
2023-11-24T22:45:45.570Z,2.10
2023-11-24T22:48:31.145Z,2.10
2023-11-24T22:51:21.720Z,2.10
2023-11-24T22:54:08.792Z,2.10
2023-11-24T22:56:54.861Z,2.10
2023-11-24T22:59:40.387Z,2.00
2023-11-24T23:02:26.043Z,2.00
2023-11-24T23:05:11.562Z,1.90
2023-11-24T23:07:57.492Z,1.80
2023-11-24T23:10:43.313Z,1.80
2023-11-24T23:13:29.545Z,1.70
2023-11-24T23:16:19.225Z,1.70
2023-11-24T23:19:05.290Z,1.60
2023-11-24T23:21:50.999Z,1.50
2023-11-24T23:24:36.645Z,1.50
2023-11-24T23:27:22.182Z,1.40
2023-11-24T23:30:08.787Z,1.40
2023-11-24T23:33:00.596Z,1.30
2023-11-24T23:35:53.261Z,1.30
2023-11-24T23:38:41.605Z,1.20
2023-11-24T23:41:27.326Z,1.20
2023-11-24T23:44:13.381Z,1.10
2023-11-24T23:47:04.909Z,1.10
2023-11-24T23:49:50.871Z,1.10
2023-11-24T23:52:36.789Z,1.00
2023-11-24T23:55:22.614Z,0.90
2023-11-24T23:58:08.889Z,0.80
